sensor_id;sensor_type;location;lat;lon;timestamp;P1;durP1;ratioP1;P2;durP2;ratioP2
13321;SDS011;6730;46.248;6.930;2024-01-30T00:01:13;1.33;;;0.90;;
13321;SDS011;6730;46.248;6.930;2024-01-30T00:03:39;1.67;;;0.83;;
13321;SDS011;6730;46.248;6.930;2024-01-30T00:06:04;1.90;;;0.70;;
13321;SDS011;6730;46.248;6.930;2024-01-30T00:08:30;0.90;;;0.80;;
13321;SDS011;6730;46.248;6.930;2024-01-30T00:10:56;1.90;;;0.83;;
13321;SDS011;6730;46.248;6.930;2024-01-30T00:13:21;1.40;;;0.73;;
13321;SDS011;6730;46.248;6.930;2024-01-30T00:15:47;1.43;;;1.00;;
13321;SDS011;6730;46.248;6.930;2024-01-30T00:18:13;1.20;;;1.10;;
13321;SDS011;6730;46.248;6.930;2024-01-30T00:20:39;2.03;;;1.00;;
13321;SDS011;6730;46.248;6.930;2024-01-30T00:23:05;1.67;;;1.03;;
13321;SDS011;6730;46.248;6.930;2024-01-30T00:25:33;1.27;;;1.00;;
13321;SDS011;6730;46.248;6.930;2024-01-30T00:27:58;0.80;;;0.80;;
13321;SDS011;6730;46.248;6.930;2024-01-30T00:30:24;1.20;;;1.10;;
13321;SDS011;6730;46.248;6.930;2024-01-30T00:32:50;1.33;;;0.87;;
13321;SDS011;6730;46.248;6.930;2024-01-30T00:35:15;1.10;;;0.90;;
13321;SDS011;6730;46.248;6.930;2024-01-30T00:37:41;1.40;;;0.90;;
13321;SDS011;6730;46.248;6.930;2024-01-30T00:40:07;0.50;;;0.50;;
13321;SDS011;6730;46.248;6.930;2024-01-30T00:42:35;0.77;;;0.73;;
13321;SDS011;6730;46.248;6.930;2024-01-30T00:45:01;0.70;;;0.63;;
13321;SDS011;6730;46.248;6.930;2024-01-30T00:47:26;0.60;;;0.60;;
13321;SDS011;6730;46.248;6.930;2024-01-30T00:49:54;1.07;;;0.70;;
13321;SDS011;6730;46.248;6.930;2024-01-30T00:52:19;0.70;;;0.70;;
13321;SDS011;6730;46.248;6.930;2024-01-30T00:54:45;1.00;;;0.67;;
13321;SDS011;6730;46.248;6.930;2024-01-30T00:57:11;1.77;;;0.80;;
13321;SDS011;6730;46.248;6.930;2024-01-30T00:59:36;1.35;;;0.82;;
13321;SDS011;6730;46.248;6.930;2024-01-30T01:02:02;1.60;;;0.90;;
13321;SDS011;6730;46.248;6.930;2024-01-30T01:04:29;1.20;;;1.10;;
13321;SDS011;6730;46.248;6.930;2024-01-30T01:06:54;2.03;;;0.90;;
13321;SDS011;6730;46.248;6.930;2024-01-30T01:09:20;0.70;;;0.70;;
13321;SDS011;6730;46.248;6.930;2024-01-30T01:11:46;1.67;;;0.83;;
13321;SDS011;6730;46.248;6.930;2024-01-30T01:14:11;1.80;;;1.00;;
13321;SDS011;6730;46.248;6.930;2024-01-30T01:16:37;1.30;;;1.10;;
13321;SDS011;6730;46.248;6.930;2024-01-30T01:19:03;0.70;;;0.70;;
13321;SDS011;6730;46.248;6.930;2024-01-30T01:21:28;0.90;;;0.90;;
13321;SDS011;6730;46.248;6.930;2024-01-30T01:23:54;0.80;;;0.73;;
13321;SDS011;6730;46.248;6.930;2024-01-30T01:26:20;1.83;;;0.97;;
13321;SDS011;6730;46.248;6.930;2024-01-30T01:28:46;1.40;;;1.13;;
13321;SDS011;6730;46.248;6.930;2024-01-30T01:31:12;1.20;;;1.10;;
13321;SDS011;6730;46.248;6.930;2024-01-30T01:33:37;1.80;;;1.20;;
13321;SDS011;6730;46.248;6.930;2024-01-30T01:36:03;1.13;;;1.00;;
13321;SDS011;6730;46.248;6.930;2024-01-30T01:38:29;1.30;;;1.00;;
13321;SDS011;6730;46.248;6.930;2024-01-30T01:40:55;1.10;;;1.00;;
13321;SDS011;6730;46.248;6.930;2024-01-30T01:43:20;1.13;;;1.00;;
13321;SDS011;6730;46.248;6.930;2024-01-30T01:45:46;1.33;;;0.80;;
13321;SDS011;6730;46.248;6.930;2024-01-30T01:48:12;1.20;;;1.10;;
13321;SDS011;6730;46.248;6.930;2024-01-30T01:50:38;0.90;;;0.80;;
13321;SDS011;6730;46.248;6.930;2024-01-30T01:53:05;0.70;;;0.70;;
13321;SDS011;6730;46.248;6.930;2024-01-30T01:55:32;1.00;;;0.80;;
13321;SDS011;6730;46.248;6.930;2024-01-30T01:58:00;1.13;;;0.93;;
13321;SDS011;6730;46.248;6.930;2024-01-30T02:00:26;0.70;;;0.60;;
13321;SDS011;6730;46.248;6.930;2024-01-30T02:02:52;1.10;;;1.00;;
13321;SDS011;6730;46.248;6.930;2024-01-30T02:05:19;0.90;;;0.80;;
13321;SDS011;6730;46.248;6.930;2024-01-30T02:07:46;1.50;;;0.80;;
13321;SDS011;6730;46.248;6.930;2024-01-30T02:10:12;1.40;;;1.10;;
13321;SDS011;6730;46.248;6.930;2024-01-30T02:12:38;1.20;;;0.93;;
13321;SDS011;6730;46.248;6.930;2024-01-30T02:15:04;0.80;;;0.70;;
13321;SDS011;6730;46.248;6.930;2024-01-30T02:17:30;0.83;;;0.80;;
13321;SDS011;6730;46.248;6.930;2024-01-30T02:19:56;0.57;;;0.50;;
13321;SDS011;6730;46.248;6.930;2024-01-30T02:22:22;1.63;;;0.73;;
13321;SDS011;6730;46.248;6.930;2024-01-30T02:24:48;0.90;;;0.80;;
13321;SDS011;6730;46.248;6.930;2024-01-30T02:27:14;1.30;;;1.00;;
13321;SDS011;6730;46.248;6.930;2024-01-30T02:29:40;1.23;;;0.90;;
13321;SDS011;6730;46.248;6.930;2024-01-30T02:32:06;1.20;;;1.00;;
13321;SDS011;6730;46.248;6.930;2024-01-30T02:34:32;0.80;;;0.80;;
13321;SDS011;6730;46.248;6.930;2024-01-30T02:36:58;1.20;;;1.10;;
13321;SDS011;6730;46.248;6.930;2024-01-30T02:39:24;1.67;;;0.80;;
13321;SDS011;6730;46.248;6.930;2024-01-30T02:41:50;2.00;;;0.80;;
13321;SDS011;6730;46.248;6.930;2024-01-30T02:44:16;1.17;;;0.70;;
13321;SDS011;6730;46.248;6.930;2024-01-30T02:46:41;1.03;;;0.80;;
13321;SDS011;6730;46.248;6.930;2024-01-30T02:49:07;1.13;;;1.03;;
13321;SDS011;6730;46.248;6.930;2024-01-30T02:51:33;1.17;;;1.07;;
13321;SDS011;6730;46.248;6.930;2024-01-30T02:53:58;1.63;;;0.90;;
13321;SDS011;6730;46.248;6.930;2024-01-30T02:56:24;1.10;;;1.00;;
13321;SDS011;6730;46.248;6.930;2024-01-30T02:58:50;1.87;;;1.07;;
13321;SDS011;6730;46.248;6.930;2024-01-30T03:01:15;1.73;;;1.00;;
13321;SDS011;6730;46.248;6.930;2024-01-30T03:03:41;0.77;;;0.77;;
13321;SDS011;6730;46.248;6.930;2024-01-30T03:06:08;1.30;;;0.83;;
13321;SDS011;6730;46.248;6.930;2024-01-30T03:08:34;0.80;;;0.80;;
13321;SDS011;6730;46.248;6.930;2024-01-30T03:11:00;0.90;;;0.80;;
13321;SDS011;6730;46.248;6.930;2024-01-30T03:13:26;0.90;;;0.80;;
13321;SDS011;6730;46.248;6.930;2024-01-30T03:15:52;0.50;;;0.47;;
13321;SDS011;6730;46.248;6.930;2024-01-30T03:18:17;0.87;;;0.80;;
13321;SDS011;6730;46.248;6.930;2024-01-30T03:20:43;1.10;;;0.80;;
13321;SDS011;6730;46.248;6.930;2024-01-30T03:23:09;0.80;;;0.80;;
13321;SDS011;6730;46.248;6.930;2024-01-30T03:25:34;0.77;;;0.70;;
13321;SDS011;6730;46.248;6.930;2024-01-30T03:28:00;0.60;;;0.60;;
13321;SDS011;6730;46.248;6.930;2024-01-30T03:30:26;0.60;;;0.60;;
13321;SDS011;6730;46.248;6.930;2024-01-30T03:32:51;1.00;;;0.80;;
13321;SDS011;6730;46.248;6.930;2024-01-30T03:35:18;0.73;;;0.73;;
13321;SDS011;6730;46.248;6.930;2024-01-30T03:37:44;1.17;;;0.80;;
13321;SDS011;6730;46.248;6.930;2024-01-30T03:40:10;1.43;;;0.97;;
13321;SDS011;6730;46.248;6.930;2024-01-30T03:42:36;0.73;;;0.70;;
13321;SDS011;6730;46.248;6.930;2024-01-30T03:45:02;1.23;;;1.07;;
13321;SDS011;6730;46.248;6.930;2024-01-30T03:47:28;2.17;;;0.77;;
13321;SDS011;6730;46.248;6.930;2024-01-30T03:49:53;3.60;;;1.03;;
13321;SDS011;6730;46.248;6.930;2024-01-30T03:52:19;0.80;;;0.80;;
13321;SDS011;6730;46.248;6.930;2024-01-30T03:54:45;1.07;;;0.97;;
13321;SDS011;6730;46.248;6.930;2024-01-30T03:57:10;0.90;;;0.80;;
13321;SDS011;6730;46.248;6.930;2024-01-30T03:59:37;0.90;;;0.90;;
13321;SDS011;6730;46.248;6.930;2024-01-30T04:02:03;0.73;;;0.73;;
13321;SDS011;6730;46.248;6.930;2024-01-30T04:04:29;1.37;;;0.70;;
13321;SDS011;6730;46.248;6.930;2024-01-30T04:06:54;0.70;;;0.67;;
13321;SDS011;6730;46.248;6.930;2024-01-30T04:09:20;0.93;;;0.80;;
13321;SDS011;6730;46.248;6.930;2024-01-30T04:11:46;0.87;;;0.70;;
13321;SDS011;6730;46.248;6.930;2024-01-30T04:14:12;0.70;;;0.70;;
13321;SDS011;6730;46.248;6.930;2024-01-30T04:16:37;0.80;;;0.77;;
13321;SDS011;6730;46.248;6.930;2024-01-30T04:19:03;2.13;;;1.53;;
13321;SDS011;6730;46.248;6.930;2024-01-30T04:21:28;1.30;;;1.00;;
13321;SDS011;6730;46.248;6.930;2024-01-30T04:23:54;1.83;;;1.30;;
13321;SDS011;6730;46.248;6.930;2024-01-30T04:26:20;1.37;;;1.00;;
13321;SDS011;6730;46.248;6.930;2024-01-30T04:28:45;1.20;;;1.10;;
13321;SDS011;6730;46.248;6.930;2024-01-30T04:31:11;1.37;;;0.70;;
13321;SDS011;6730;46.248;6.930;2024-01-30T04:33:37;0.70;;;0.70;;
13321;SDS011;6730;46.248;6.930;2024-01-30T04:36:03;0.80;;;0.80;;
13321;SDS011;6730;46.248;6.930;2024-01-30T04:38:29;0.70;;;0.70;;
13321;SDS011;6730;46.248;6.930;2024-01-30T04:40:56;2.10;;;0.60;;
13321;SDS011;6730;46.248;6.930;2024-01-30T04:43:23;1.20;;;0.77;;
13321;SDS011;6730;46.248;6.930;2024-01-30T04:45:49;0.70;;;0.63;;
13321;SDS011;6730;46.248;6.930;2024-01-30T04:48:14;1.10;;;1.00;;
13321;SDS011;6730;46.248;6.930;2024-01-30T04:50:40;0.90;;;0.90;;
13321;SDS011;6730;46.248;6.930;2024-01-30T04:53:06;1.00;;;0.90;;
13321;SDS011;6730;46.248;6.930;2024-01-30T04:55:32;1.00;;;0.90;;
13321;SDS011;6730;46.248;6.930;2024-01-30T04:57:58;1.17;;;0.90;;
13321;SDS011;6730;46.248;6.930;2024-01-30T05:00:24;1.20;;;0.90;;
13321;SDS011;6730;46.248;6.930;2024-01-30T05:02:49;1.20;;;0.70;;
13321;SDS011;6730;46.248;6.930;2024-01-30T05:05:15;1.10;;;0.60;;
13321;SDS011;6730;46.248;6.930;2024-01-30T05:07:41;1.00;;;0.90;;
13321;SDS011;6730;46.248;6.930;2024-01-30T05:10:07;1.20;;;0.90;;
13321;SDS011;6730;46.248;6.930;2024-01-30T05:12:33;0.73;;;0.70;;
13321;SDS011;6730;46.248;6.930;2024-01-30T05:14:59;1.10;;;0.87;;
13321;SDS011;6730;46.248;6.930;2024-01-30T05:17:24;0.90;;;0.80;;
13321;SDS011;6730;46.248;6.930;2024-01-30T05:19:50;2.00;;;0.80;;
13321;SDS011;6730;46.248;6.930;2024-01-30T05:22:16;0.80;;;0.63;;
13321;SDS011;6730;46.248;6.930;2024-01-30T05:24:43;0.60;;;0.60;;
13321;SDS011;6730;46.248;6.930;2024-01-30T05:27:09;0.80;;;0.73;;
13321;SDS011;6730;46.248;6.930;2024-01-30T05:29:35;0.77;;;0.77;;
13321;SDS011;6730;46.248;6.930;2024-01-30T05:32:01;1.13;;;0.97;;
13321;SDS011;6730;46.248;6.930;2024-01-30T05:34:27;1.10;;;1.00;;
13321;SDS011;6730;46.248;6.930;2024-01-30T05:36:53;0.80;;;0.80;;
13321;SDS011;6730;46.248;6.930;2024-01-30T05:39:19;0.60;;;0.60;;
13321;SDS011;6730;46.248;6.930;2024-01-30T05:41:45;1.07;;;0.80;;
13321;SDS011;6730;46.248;6.930;2024-01-30T05:44:10;1.10;;;0.87;;
13321;SDS011;6730;46.248;6.930;2024-01-30T05:46:36;1.00;;;0.80;;
13321;SDS011;6730;46.248;6.930;2024-01-30T05:49:02;0.83;;;0.80;;
13321;SDS011;6730;46.248;6.930;2024-01-30T05:51:27;1.17;;;0.83;;
13321;SDS011;6730;46.248;6.930;2024-01-30T05:53:53;0.97;;;0.80;;
13321;SDS011;6730;46.248;6.930;2024-01-30T05:56:19;1.17;;;0.80;;
13321;SDS011;6730;46.248;6.930;2024-01-30T05:58:44;1.57;;;0.77;;
13321;SDS011;6730;46.248;6.930;2024-01-30T06:01:10;0.70;;;0.70;;
13321;SDS011;6730;46.248;6.930;2024-01-30T06:03:36;0.93;;;0.83;;
13321;SDS011;6730;46.248;6.930;2024-01-30T06:06:02;1.00;;;0.90;;
13321;SDS011;6730;46.248;6.930;2024-01-30T06:08:28;1.87;;;0.90;;
13321;SDS011;6730;46.248;6.930;2024-01-30T06:10:53;0.80;;;0.73;;
13321;SDS011;6730;46.248;6.930;2024-01-30T06:13:19;0.80;;;0.80;;
13321;SDS011;6730;46.248;6.930;2024-01-30T06:15:45;0.97;;;0.77;;
13321;SDS011;6730;46.248;6.930;2024-01-30T06:18:10;0.83;;;0.73;;
13321;SDS011;6730;46.248;6.930;2024-01-30T06:20:36;1.47;;;1.00;;
13321;SDS011;6730;46.248;6.930;2024-01-30T06:23:02;0.87;;;0.80;;
13321;SDS011;6730;46.248;6.930;2024-01-30T06:25:27;4.30;;;1.10;;
13321;SDS011;6730;46.248;6.930;2024-01-30T06:27:53;1.10;;;0.97;;
13321;SDS011;6730;46.248;6.930;2024-01-30T06:30:19;1.73;;;1.20;;
13321;SDS011;6730;46.248;6.930;2024-01-30T06:32:45;1.20;;;1.10;;
13321;SDS011;6730;46.248;6.930;2024-01-30T06:35:10;1.30;;;1.10;;
13321;SDS011;6730;46.248;6.930;2024-01-30T06:37:36;1.63;;;0.70;;
13321;SDS011;6730;46.248;6.930;2024-01-30T06:40:02;1.53;;;1.40;;
13321;SDS011;6730;46.248;6.930;2024-01-30T06:42:29;0.77;;;0.77;;
13321;SDS011;6730;46.248;6.930;2024-01-30T06:44:55;1.23;;;0.90;;
13321;SDS011;6730;46.248;6.930;2024-01-30T06:47:21;2.23;;;1.03;;
13321;SDS011;6730;46.248;6.930;2024-01-30T06:49:47;1.00;;;0.90;;
13321;SDS011;6730;46.248;6.930;2024-01-30T06:52:12;1.40;;;0.80;;
13321;SDS011;6730;46.248;6.930;2024-01-30T06:54:39;1.00;;;0.80;;
13321;SDS011;6730;46.248;6.930;2024-01-30T06:57:05;1.10;;;0.83;;
13321;SDS011;6730;46.248;6.930;2024-01-30T06:59:34;0.83;;;0.83;;
13321;SDS011;6730;46.248;6.930;2024-01-30T07:02:00;0.80;;;0.80;;
13321;SDS011;6730;46.248;6.930;2024-01-30T07:04:25;1.37;;;0.90;;
13321;SDS011;6730;46.248;6.930;2024-01-30T07:06:51;1.30;;;1.20;;
13321;SDS011;6730;46.248;6.930;2024-01-30T07:09:18;2.30;;;0.80;;
13321;SDS011;6730;46.248;6.930;2024-01-30T07:11:44;1.20;;;1.00;;
13321;SDS011;6730;46.248;6.930;2024-01-30T07:14:09;2.20;;;1.10;;
13321;SDS011;6730;46.248;6.930;2024-01-30T07:16:35;0.80;;;0.80;;
13321;SDS011;6730;46.248;6.930;2024-01-30T07:19:01;1.40;;;0.90;;
13321;SDS011;6730;46.248;6.930;2024-01-30T07:21:27;0.90;;;0.70;;
13321;SDS011;6730;46.248;6.930;2024-01-30T07:23:56;2.10;;;0.70;;
13321;SDS011;6730;46.248;6.930;2024-01-30T07:26:22;2.00;;;0.77;;
13321;SDS011;6730;46.248;6.930;2024-01-30T07:28:48;0.80;;;0.80;;
13321;SDS011;6730;46.248;6.930;2024-01-30T07:31:15;0.47;;;0.47;;
13321;SDS011;6730;46.248;6.930;2024-01-30T07:33:40;1.00;;;0.90;;
13321;SDS011;6730;46.248;6.930;2024-01-30T07:36:06;0.83;;;0.83;;
13321;SDS011;6730;46.248;6.930;2024-01-30T07:38:32;1.70;;;0.80;;
13321;SDS011;6730;46.248;6.930;2024-01-30T07:40:58;0.80;;;0.77;;
13321;SDS011;6730;46.248;6.930;2024-01-30T07:43:23;1.20;;;1.10;;
13321;SDS011;6730;46.248;6.930;2024-01-30T07:45:49;1.77;;;1.00;;
13321;SDS011;6730;46.248;6.930;2024-01-30T07:48:15;1.77;;;1.00;;
13321;SDS011;6730;46.248;6.930;2024-01-30T07:50:41;1.07;;;0.80;;
13321;SDS011;6730;46.248;6.930;2024-01-30T07:53:06;2.03;;;1.53;;
13321;SDS011;6730;46.248;6.930;2024-01-30T07:55:32;3.13;;;2.60;;
13321;SDS011;6730;46.248;6.930;2024-01-30T07:57:58;3.47;;;2.70;;
13321;SDS011;6730;46.248;6.930;2024-01-30T08:00:26;4.50;;;3.00;;
13321;SDS011;6730;46.248;6.930;2024-01-30T08:02:54;2.63;;;2.30;;
13321;SDS011;6730;46.248;6.930;2024-01-30T08:05:20;1.60;;;1.30;;
13321;SDS011;6730;46.248;6.930;2024-01-30T08:07:50;2.58;;;1.55;;
13321;SDS011;6730;46.248;6.930;2024-01-30T08:10:15;1.88;;;1.50;;
13321;SDS011;6730;46.248;6.930;2024-01-30T08:12:43;3.08;;;1.63;;
13321;SDS011;6730;46.248;6.930;2024-01-30T08:15:09;4.65;;;1.70;;
13321;SDS011;6730;46.248;6.930;2024-01-30T08:17:37;2.42;;;1.50;;
13321;SDS011;6730;46.248;6.930;2024-01-30T08:20:03;2.28;;;1.92;;
13321;SDS011;6730;46.248;6.930;2024-01-30T08:22:29;1.88;;;1.50;;
13321;SDS011;6730;46.248;6.930;2024-01-30T08:24:55;2.15;;;1.58;;
13321;SDS011;6730;46.248;6.930;2024-01-30T08:27:21;2.63;;;1.40;;
13321;SDS011;6730;46.248;6.930;2024-01-30T08:29:46;2.00;;;1.50;;
13321;SDS011;6730;46.248;6.930;2024-01-30T08:32:12;2.97;;;2.50;;
13321;SDS011;6730;46.248;6.930;2024-01-30T08:34:38;5.18;;;2.20;;
13321;SDS011;6730;46.248;6.930;2024-01-30T08:37:03;4.07;;;1.95;;
13321;SDS011;6730;46.248;6.930;2024-01-30T08:39:29;6.00;;;1.88;;
13321;SDS011;6730;46.248;6.930;2024-01-30T08:41:55;1.85;;;1.60;;
13321;SDS011;6730;46.248;6.930;2024-01-30T08:44:21;3.13;;;2.00;;
13321;SDS011;6730;46.248;6.930;2024-01-30T08:46:46;3.10;;;1.90;;
13321;SDS011;6730;46.248;6.930;2024-01-30T08:49:13;2.40;;;1.70;;
13321;SDS011;6730;46.248;6.930;2024-01-30T08:51:41;4.78;;;2.08;;
13321;SDS011;6730;46.248;6.930;2024-01-30T08:54:06;2.53;;;1.90;;
13321;SDS011;6730;46.248;6.930;2024-01-30T08:56:32;2.47;;;1.92;;
13321;SDS011;6730;46.248;6.930;2024-01-30T08:58:58;2.38;;;2.05;;
13321;SDS011;6730;46.248;6.930;2024-01-30T09:01:24;2.88;;;1.80;;
13321;SDS011;6730;46.248;6.930;2024-01-30T09:03:50;2.25;;;1.90;;
13321;SDS011;6730;46.248;6.930;2024-01-30T09:06:16;2.50;;;1.80;;
13321;SDS011;6730;46.248;6.930;2024-01-30T09:08:41;3.08;;;2.47;;
13321;SDS011;6730;46.248;6.930;2024-01-30T09:11:11;5.20;;;2.40;;
13321;SDS011;6730;46.248;6.930;2024-01-30T09:13:38;3.35;;;2.55;;
13321;SDS011;6730;46.248;6.930;2024-01-30T09:16:04;6.00;;;2.90;;
13321;SDS011;6730;46.248;6.930;2024-01-30T09:18:30;3.45;;;2.97;;
13321;SDS011;6730;46.248;6.930;2024-01-30T09:20:56;3.92;;;2.85;;
13321;SDS011;6730;46.248;6.930;2024-01-30T09:23:22;5.45;;;3.00;;
13321;SDS011;6730;46.248;6.930;2024-01-30T09:25:47;4.63;;;3.05;;
13321;SDS011;6730;46.248;6.930;2024-01-30T09:28:13;3.03;;;2.67;;
13321;SDS011;6730;46.248;6.930;2024-01-30T09:30:39;3.78;;;3.10;;
13321;SDS011;6730;46.248;6.930;2024-01-30T09:33:05;4.07;;;3.03;;
13321;SDS011;6730;46.248;6.930;2024-01-30T09:35:31;3.60;;;2.90;;
13321;SDS011;6730;46.248;6.930;2024-01-30T09:37:57;4.20;;;3.45;;
13321;SDS011;6730;46.248;6.930;2024-01-30T09:40:23;4.03;;;2.95;;
13321;SDS011;6730;46.248;6.930;2024-01-30T09:42:49;6.15;;;3.78;;
13321;SDS011;6730;46.248;6.930;2024-01-30T09:45:19;5.95;;;3.30;;
13321;SDS011;6730;46.248;6.930;2024-01-30T09:47:48;4.78;;;3.10;;
13321;SDS011;6730;46.248;6.930;2024-01-30T09:50:14;3.90;;;3.10;;
13321;SDS011;6730;46.248;6.930;2024-01-30T09:52:41;4.22;;;3.00;;
13321;SDS011;6730;46.248;6.930;2024-01-30T09:55:09;5.57;;;3.45;;
13321;SDS011;6730;46.248;6.930;2024-01-30T09:57:34;4.35;;;3.30;;
13321;SDS011;6730;46.248;6.930;2024-01-30T10:00:01;5.03;;;4.00;;
13321;SDS011;6730;46.248;6.930;2024-01-30T10:02:28;6.97;;;4.18;;
13321;SDS011;6730;46.248;6.930;2024-01-30T10:04:53;5.82;;;3.50;;
13321;SDS011;6730;46.248;6.930;2024-01-30T10:07:19;7.47;;;3.72;;
13321;SDS011;6730;46.248;6.930;2024-01-30T10:09:45;6.05;;;4.10;;
13321;SDS011;6730;46.248;6.930;2024-01-30T10:12:11;4.47;;;3.35;;
13321;SDS011;6730;46.248;6.930;2024-01-30T10:14:41;3.92;;;2.70;;
13321;SDS011;6730;46.248;6.930;2024-01-30T10:17:08;3.67;;;2.90;;
13321;SDS011;6730;46.248;6.930;2024-01-30T10:19:35;4.55;;;3.15;;
13321;SDS011;6730;46.248;6.930;2024-01-30T10:22:01;4.53;;;3.25;;
13321;SDS011;6730;46.248;6.930;2024-01-30T10:24:28;3.75;;;3.10;;
13321;SDS011;6730;46.248;6.930;2024-01-30T10:26:54;3.67;;;2.88;;
13321;SDS011;6730;46.248;6.930;2024-01-30T10:29:21;5.28;;;3.63;;
13321;SDS011;6730;46.248;6.930;2024-01-30T10:31:57;4.68;;;3.38;;
13321;SDS011;6730;46.248;6.930;2024-01-30T10:34:23;5.57;;;3.67;;
13321;SDS011;6730;46.248;6.930;2024-01-30T10:36:49;5.90;;;3.80;;
13321;SDS011;6730;46.248;6.930;2024-01-30T10:39:19;4.13;;;3.78;;
13321;SDS011;6730;46.248;6.930;2024-01-30T10:41:47;4.10;;;3.70;;
13321;SDS011;6730;46.248;6.930;2024-01-30T10:44:17;5.07;;;3.80;;
13321;SDS011;6730;46.248;6.930;2024-01-30T10:46:49;4.75;;;4.10;;
13321;SDS011;6730;46.248;6.930;2024-01-30T10:49:19;7.05;;;4.63;;
13321;SDS011;6730;46.248;6.930;2024-01-30T10:51:47;6.00;;;4.38;;
13321;SDS011;6730;46.248;6.930;2024-01-30T10:54:14;5.70;;;4.38;;
13321;SDS011;6730;46.248;6.930;2024-01-30T10:56:40;4.60;;;4.15;;
13321;SDS011;6730;46.248;6.930;2024-01-30T10:59:07;4.82;;;4.32;;
13321;SDS011;6730;46.248;6.930;2024-01-30T11:01:34;4.35;;;3.95;;
13321;SDS011;6730;46.248;6.930;2024-01-30T11:04:00;9.55;;;3.88;;
13321;SDS011;6730;46.248;6.930;2024-01-30T11:06:26;8.90;;;4.50;;
13321;SDS011;6730;46.248;6.930;2024-01-30T11:09:05;7.38;;;4.13;;
13321;SDS011;6730;46.248;6.930;2024-01-30T11:11:51;7.38;;;3.95;;
13321;SDS011;6730;46.248;6.930;2024-01-30T11:14:22;9.48;;;4.43;;
13321;SDS011;6730;46.248;6.930;2024-01-30T11:16:50;5.95;;;3.78;;
13321;SDS011;6730;46.248;6.930;2024-01-30T11:19:15;5.20;;;4.05;;
13321;SDS011;6730;46.248;6.930;2024-01-30T11:21:50;4.55;;;3.50;;
13321;SDS011;6730;46.248;6.930;2024-01-30T11:24:19;3.85;;;3.33;;
13321;SDS011;6730;46.248;6.930;2024-01-30T11:26:47;3.40;;;3.10;;
13321;SDS011;6730;46.248;6.930;2024-01-30T11:29:14;6.45;;;3.97;;
13321;SDS011;6730;46.248;6.930;2024-01-30T11:31:50;4.55;;;3.42;;
13321;SDS011;6730;46.248;6.930;2024-01-30T11:34:17;4.60;;;3.47;;
13321;SDS011;6730;46.248;6.930;2024-01-30T11:36:44;4.60;;;3.40;;
13321;SDS011;6730;46.248;6.930;2024-01-30T11:39:14;5.60;;;3.60;;
13321;SDS011;6730;46.248;6.930;2024-01-30T11:41:42;3.42;;;3.05;;
13321;SDS011;6730;46.248;6.930;2024-01-30T11:44:10;4.78;;;3.58;;
13321;SDS011;6730;46.248;6.930;2024-01-30T11:46:35;5.00;;;3.75;;
13321;SDS011;6730;46.248;6.930;2024-01-30T11:49:01;4.25;;;3.17;;
13321;SDS011;6730;46.248;6.930;2024-01-30T11:51:27;4.65;;;3.45;;
13321;SDS011;6730;46.248;6.930;2024-01-30T11:53:56;3.97;;;3.50;;
13321;SDS011;6730;46.248;6.930;2024-01-30T11:56:23;4.78;;;3.30;;
13321;SDS011;6730;46.248;6.930;2024-01-30T11:58:50;10.40;;;3.40;;
13321;SDS011;6730;46.248;6.930;2024-01-30T12:01:17;5.00;;;3.08;;
13321;SDS011;6730;46.248;6.930;2024-01-30T12:03:43;7.20;;;4.07;;
13321;SDS011;6730;46.248;6.930;2024-01-30T12:06:15;8.13;;;3.63;;
13321;SDS011;6730;46.248;6.930;2024-01-30T12:08:41;5.35;;;3.90;;
13321;SDS011;6730;46.248;6.930;2024-01-30T12:11:07;6.93;;;3.17;;
13321;SDS011;6730;46.248;6.930;2024-01-30T12:13:32;4.53;;;3.03;;
13321;SDS011;6730;46.248;6.930;2024-01-30T12:15:58;4.20;;;2.88;;
13321;SDS011;6730;46.248;6.930;2024-01-30T12:18:25;4.07;;;3.15;;
13321;SDS011;6730;46.248;6.930;2024-01-30T12:21:00;4.63;;;3.40;;
13321;SDS011;6730;46.248;6.930;2024-01-30T12:23:29;4.28;;;3.30;;
13321;SDS011;6730;46.248;6.930;2024-01-30T12:25:54;3.35;;;2.70;;
13321;SDS011;6730;46.248;6.930;2024-01-30T12:28:21;4.13;;;3.33;;
13321;SDS011;6730;46.248;6.930;2024-01-30T12:30:47;4.05;;;3.47;;
13321;SDS011;6730;46.248;6.930;2024-01-30T12:33:16;4.57;;;3.15;;
13321;SDS011;6730;46.248;6.930;2024-01-30T12:35:46;9.02;;;3.72;;
13321;SDS011;6730;46.248;6.930;2024-01-30T12:38:13;3.80;;;3.25;;
13321;SDS011;6730;46.248;6.930;2024-01-30T12:40:39;5.85;;;3.08;;
13321;SDS011;6730;46.248;6.930;2024-01-30T12:43:05;4.18;;;3.50;;
13321;SDS011;6730;46.248;6.930;2024-01-30T12:45:31;4.80;;;4.05;;
13321;SDS011;6730;46.248;6.930;2024-01-30T12:47:56;6.25;;;4.10;;
13321;SDS011;6730;46.248;6.930;2024-01-30T12:50:23;6.45;;;4.43;;
13321;SDS011;6730;46.248;6.930;2024-01-30T12:52:49;5.63;;;3.60;;
13321;SDS011;6730;46.248;6.930;2024-01-30T12:55:14;8.75;;;4.13;;
13321;SDS011;6730;46.248;6.930;2024-01-30T12:57:40;4.13;;;3.72;;
13321;SDS011;6730;46.248;6.930;2024-01-30T13:00:06;4.90;;;4.13;;
13321;SDS011;6730;46.248;6.930;2024-01-30T13:02:35;4.45;;;4.05;;
13321;SDS011;6730;46.248;6.930;2024-01-30T13:05:02;5.72;;;4.72;;
13321;SDS011;6730;46.248;6.930;2024-01-30T13:07:29;6.72;;;4.60;;
13321;SDS011;6730;46.248;6.930;2024-01-30T13:09:56;5.90;;;4.65;;
13321;SDS011;6730;46.248;6.930;2024-01-30T13:12:27;7.55;;;4.90;;
13321;SDS011;6730;46.248;6.930;2024-01-30T13:14:53;5.03;;;4.35;;
13321;SDS011;6730;46.248;6.930;2024-01-30T13:17:19;9.90;;;4.22;;
13321;SDS011;6730;46.248;6.930;2024-01-30T13:19:45;5.75;;;4.10;;
13321;SDS011;6730;46.248;6.930;2024-01-30T13:22:11;8.32;;;5.05;;
13321;SDS011;6730;46.248;6.930;2024-01-30T13:24:36;6.25;;;5.20;;
13321;SDS011;6730;46.248;6.930;2024-01-30T13:27:02;6.57;;;5.07;;
13321;SDS011;6730;46.248;6.930;2024-01-30T13:29:30;4.95;;;4.45;;
13321;SDS011;6730;46.248;6.930;2024-01-30T13:31:56;5.82;;;4.13;;
13321;SDS011;6730;46.248;6.930;2024-01-30T13:34:22;5.45;;;4.35;;
13321;SDS011;6730;46.248;6.930;2024-01-30T13:36:47;7.60;;;4.68;;
13321;SDS011;6730;46.248;6.930;2024-01-30T13:39:14;6.82;;;5.10;;
13321;SDS011;6730;46.248;6.930;2024-01-30T13:41:41;7.88;;;5.75;;
13321;SDS011;6730;46.248;6.930;2024-01-30T13:44:07;6.32;;;4.57;;
13321;SDS011;6730;46.248;6.930;2024-01-30T13:46:34;7.65;;;5.18;;
13321;SDS011;6730;46.248;6.930;2024-01-30T13:49:00;10.38;;;5.47;;
13321;SDS011;6730;46.248;6.930;2024-01-30T13:51:29;8.23;;;5.72;;
13321;SDS011;6730;46.248;6.930;2024-01-30T13:53:55;7.45;;;5.45;;
13321;SDS011;6730;46.248;6.930;2024-01-30T13:56:20;8.98;;;5.43;;
13321;SDS011;6730;46.248;6.930;2024-01-30T13:58:48;6.38;;;5.43;;
13321;SDS011;6730;46.248;6.930;2024-01-30T14:01:14;8.07;;;4.60;;
13321;SDS011;6730;46.248;6.930;2024-01-30T14:03:40;6.90;;;5.70;;
13321;SDS011;6730;46.248;6.930;2024-01-30T14:06:06;6.20;;;5.18;;
13321;SDS011;6730;46.248;6.930;2024-01-30T14:08:32;5.80;;;4.40;;
13321;SDS011;6730;46.248;6.930;2024-01-30T14:10:57;6.13;;;4.68;;
13321;SDS011;6730;46.248;6.930;2024-01-30T14:13:23;5.22;;;4.28;;
13321;SDS011;6730;46.248;6.930;2024-01-30T14:15:50;6.95;;;5.55;;
13321;SDS011;6730;46.248;6.930;2024-01-30T14:18:16;7.13;;;5.07;;
13321;SDS011;6730;46.248;6.930;2024-01-30T14:20:42;7.55;;;5.13;;
13321;SDS011;6730;46.248;6.930;2024-01-30T14:23:08;6.50;;;4.20;;
13321;SDS011;6730;46.248;6.930;2024-01-30T14:25:33;5.05;;;3.95;;
13321;SDS011;6730;46.248;6.930;2024-01-30T14:27:59;8.77;;;4.78;;
13321;SDS011;6730;46.248;6.930;2024-01-30T14:30:25;9.55;;;4.90;;
13321;SDS011;6730;46.248;6.930;2024-01-30T14:32:50;6.43;;;4.70;;
13321;SDS011;6730;46.248;6.930;2024-01-30T14:35:16;10.02;;;5.38;;
13321;SDS011;6730;46.248;6.930;2024-01-30T14:37:42;6.28;;;4.30;;
13321;SDS011;6730;46.248;6.930;2024-01-30T14:40:08;12.95;;;5.15;;
13321;SDS011;6730;46.248;6.930;2024-01-30T14:42:34;10.18;;;5.40;;
13321;SDS011;6730;46.248;6.930;2024-01-30T14:45:01;8.45;;;5.82;;
13321;SDS011;6730;46.248;6.930;2024-01-30T14:47:27;6.47;;;5.38;;
13321;SDS011;6730;46.248;6.930;2024-01-30T14:49:53;7.28;;;4.88;;
13321;SDS011;6730;46.248;6.930;2024-01-30T14:52:19;7.60;;;5.57;;
13321;SDS011;6730;46.248;6.930;2024-01-30T14:54:44;7.72;;;5.47;;